sensor_id;sensor_type;location;lat;lon;timestamp;temperature;humidity
22968;DHT22;11650;48.106;-1.696;2023-05-10T00:00:15;11.40;99.90
22968;DHT22;11650;48.106;-1.696;2023-05-10T00:02:40;11.40;99.90
22968;DHT22;11650;48.106;-1.696;2023-05-10T00:05:06;11.30;99.90
22968;DHT22;11650;48.106;-1.696;2023-05-10T00:07:32;11.30;99.90
22968;DHT22;11650;48.106;-1.696;2023-05-10T00:09:58;11.20;99.90
22968;DHT22;11650;48.106;-1.696;2023-05-10T00:12:24;11.20;99.90
22968;DHT22;11650;48.106;-1.696;2023-05-10T00:14:49;11.20;99.90
22968;DHT22;11650;48.106;-1.696;2023-05-10T00:17:15;11.10;99.90
22968;DHT22;11650;48.106;-1.696;2023-05-10T00:19:41;11.20;99.90
22968;DHT22;11650;48.106;-1.696;2023-05-10T00:22:06;11.10;99.90
22968;DHT22;11650;48.106;-1.696;2023-05-10T00:24:32;11.10;99.90
22968;DHT22;11650;48.106;-1.696;2023-05-10T00:26:57;11.10;99.90
22968;DHT22;11650;48.106;-1.696;2023-05-10T00:29:23;11.00;99.90
22968;DHT22;11650;48.106;-1.696;2023-05-10T00:31:49;11.00;99.90
22968;DHT22;11650;48.106;-1.696;2023-05-10T00:34:15;11.00;99.90
22968;DHT22;11650;48.106;-1.696;2023-05-10T00:36:40;11.00;99.90
22968;DHT22;11650;48.106;-1.696;2023-05-10T00:39:06;11.00;99.90
22968;DHT22;11650;48.106;-1.696;2023-05-10T00:41:31;11.00;99.90
22968;DHT22;11650;48.106;-1.696;2023-05-10T00:43:58;11.00;99.90
22968;DHT22;11650;48.106;-1.696;2023-05-10T00:46:24;11.00;99.90
22968;DHT22;11650;48.106;-1.696;2023-05-10T00:48:51;11.00;99.90
22968;DHT22;11650;48.106;-1.696;2023-05-10T00:51:17;11.00;99.90
22968;DHT22;11650;48.106;-1.696;2023-05-10T00:53:44;11.00;99.90
22968;DHT22;11650;48.106;-1.696;2023-05-10T00:56:11;11.00;99.90
22968;DHT22;11650;48.106;-1.696;2023-05-10T00:58:37;11.00;99.90
22968;DHT22;11650;48.106;-1.696;2023-05-10T01:01:04;11.00;99.90
22968;DHT22;11650;48.106;-1.696;2023-05-10T01:03:31;11.00;99.90
22968;DHT22;11650;48.106;-1.696;2023-05-10T01:05:57;10.90;99.90
22968;DHT22;11650;48.106;-1.696;2023-05-10T01:08:24;10.90;99.90
22968;DHT22;11650;48.106;-1.696;2023-05-10T01:10:50;10.90;99.90
22968;DHT22;11650;48.106;-1.696;2023-05-10T01:13:31;10.80;99.90
22968;DHT22;11650;48.106;-1.696;2023-05-10T01:15:58;10.80;99.90
22968;DHT22;11650;48.106;-1.696;2023-05-10T01:18:26;10.90;99.90
22968;DHT22;11650;48.106;-1.696;2023-05-10T01:21:01;10.90;99.90
22968;DHT22;11650;48.106;-1.696;2023-05-10T01:34:48;10.70;99.90
22968;DHT22;11650;48.106;-1.696;2023-05-10T01:37:31;10.60;99.90
22968;DHT22;11650;48.106;-1.696;2023-05-10T01:40:04;10.60;99.90
22968;DHT22;11650;48.106;-1.696;2023-05-10T01:42:39;10.60;99.90
22968;DHT22;11650;48.106;-1.696;2023-05-10T01:47:46;10.50;99.90
22968;DHT22;11650;48.106;-1.696;2023-05-10T01:50:27;10.50;99.90
22968;DHT22;11650;48.106;-1.696;2023-05-10T01:52:56;10.50;99.90
22968;DHT22;11650;48.106;-1.696;2023-05-10T01:55:25;10.50;99.90
22968;DHT22;11650;48.106;-1.696;2023-05-10T01:58:05;10.50;99.90
22968;DHT22;11650;48.106;-1.696;2023-05-10T02:00:32;10.50;99.90
22968;DHT22;11650;48.106;-1.696;2023-05-10T02:03:00;10.40;99.90
22968;DHT22;11650;48.106;-1.696;2023-05-10T02:05:29;10.40;99.90
22968;DHT22;11650;48.106;-1.696;2023-05-10T02:07:57;10.40;99.90
22968;DHT22;11650;48.106;-1.696;2023-05-10T02:10:24;10.40;99.90
22968;DHT22;11650;48.106;-1.696;2023-05-10T02:12:50;10.40;99.90
22968;DHT22;11650;48.106;-1.696;2023-05-10T02:15:23;10.30;99.90
22968;DHT22;11650;48.106;-1.696;2023-05-10T02:17:50;10.40;99.90
22968;DHT22;11650;48.106;-1.696;2023-05-10T02:20:19;10.30;99.90
22968;DHT22;11650;48.106;-1.696;2023-05-10T02:22:47;10.30;99.90
22968;DHT22;11650;48.106;-1.696;2023-05-10T02:25:14;10.30;99.90
22968;DHT22;11650;48.106;-1.696;2023-05-10T02:27:42;10.30;99.90
22968;DHT22;11650;48.106;-1.696;2023-05-10T02:30:10;10.20;99.90
22968;DHT22;11650;48.106;-1.696;2023-05-10T02:32:37;10.20;99.90
22968;DHT22;11650;48.106;-1.696;2023-05-10T02:35:03;10.30;99.90
22968;DHT22;11650;48.106;-1.696;2023-05-10T02:37:31;10.30;99.90
22968;DHT22;11650;48.106;-1.696;2023-05-10T02:39:58;10.30;99.90
22968;DHT22;11650;48.106;-1.696;2023-05-10T02:42:29;10.30;99.90
22968;DHT22;11650;48.106;-1.696;2023-05-10T02:45:00;10.20;99.90
22968;DHT22;11650;48.106;-1.696;2023-05-10T02:47:27;10.30;99.90
22968;DHT22;11650;48.106;-1.696;2023-05-10T02:49:53;10.20;99.90
22968;DHT22;11650;48.106;-1.696;2023-05-10T02:52:25;10.20;99.90
22968;DHT22;11650;48.106;-1.696;2023-05-10T02:54:55;10.20;99.90
22968;DHT22;11650;48.106;-1.696;2023-05-10T02:57:27;10.20;99.90
22968;DHT22;11650;48.106;-1.696;2023-05-10T02:59:54;10.20;99.90
22968;DHT22;11650;48.106;-1.696;2023-05-10T03:02:21;10.10;99.90
22968;DHT22;11650;48.106;-1.696;2023-05-10T03:04:46;10.10;99.90
22968;DHT22;11650;48.106;-1.696;2023-05-10T03:07:13;10.10;99.90
22968;DHT22;11650;48.106;-1.696;2023-05-10T03:09:39;10.10;99.90
22968;DHT22;11650;48.106;-1.696;2023-05-10T03:17:41;10.00;99.90
22968;DHT22;11650;48.106;-1.696;2023-05-10T03:20:11;10.00;99.90
22968;DHT22;11650;48.106;-1.696;2023-05-10T03:22:43;10.00;99.90
22968;DHT22;11650;48.106;-1.696;2023-05-10T03:25:10;10.00;99.90
22968;DHT22;11650;48.106;-1.696;2023-05-10T03:27:39;10.00;99.90
22968;DHT22;11650;48.106;-1.696;2023-05-10T03:30:07;10.00;99.90
22968;DHT22;11650;48.106;-1.696;2023-05-10T03:32:33;10.00;99.90
22968;DHT22;11650;48.106;-1.696;2023-05-10T03:35:00;10.00;99.90
22968;DHT22;11650;48.106;-1.696;2023-05-10T03:37:25;10.00;99.90
22968;DHT22;11650;48.106;-1.696;2023-05-10T03:39:51;10.00;99.90
22968;DHT22;11650;48.106;-1.696;2023-05-10T03:42:17;10.00;99.90
22968;DHT22;11650;48.106;-1.696;2023-05-10T03:44:43;10.00;99.90
22968;DHT22;11650;48.106;-1.696;2023-05-10T03:47:08;10.10;99.90
22968;DHT22;11650;48.106;-1.696;2023-05-10T03:49:34;10.10;99.90
22968;DHT22;11650;48.106;-1.696;2023-05-10T03:52:00;10.10;99.90
22968;DHT22;11650;48.106;-1.696;2023-05-10T03:54:25;10.10;99.90
22968;DHT22;11650;48.106;-1.696;2023-05-10T03:56:51;10.10;99.90
22968;DHT22;11650;48.106;-1.696;2023-05-10T03:59:17;10.10;99.90
22968;DHT22;11650;48.106;-1.696;2023-05-10T04:01:42;10.00;99.90
22968;DHT22;11650;48.106;-1.696;2023-05-10T04:04:08;10.10;99.90
22968;DHT22;11650;48.106;-1.696;2023-05-10T04:06:34;10.10;99.90
22968;DHT22;11650;48.106;-1.696;2023-05-10T04:09:00;10.10;99.90
22968;DHT22;11650;48.106;-1.696;2023-05-10T04:11:29;10.20;99.90
22968;DHT22;11650;48.106;-1.696;2023-05-10T04:13:54;10.20;99.90
22968;DHT22;11650;48.106;-1.696;2023-05-10T04:16:20;10.20;99.90
22968;DHT22;11650;48.106;-1.696;2023-05-10T04:18:46;10.20;99.90
22968;DHT22;11650;48.106;-1.696;2023-05-10T04:21:12;10.30;99.90
22968;DHT22;11650;48.106;-1.696;2023-05-10T04:23:38;10.30;99.90
22968;DHT22;11650;48.106;-1.696;2023-05-10T04:26:04;10.30;99.90
22968;DHT22;11650;48.106;-1.696;2023-05-10T04:28:30;10.20;99.90
22968;DHT22;11650;48.106;-1.696;2023-05-10T04:31:09;10.30;99.90
22968;DHT22;11650;48.106;-1.696;2023-05-10T04:33:35;10.20;99.90
22968;DHT22;11650;48.106;-1.696;2023-05-10T04:36:02;10.20;99.90
22968;DHT22;11650;48.106;-1.696;2023-05-10T04:38:28;10.20;99.90
22968;DHT22;11650;48.106;-1.696;2023-05-10T04:40:54;10.20;99.90
22968;DHT22;11650;48.106;-1.696;2023-05-10T04:43:20;10.10;99.90
22968;DHT22;11650;48.106;-1.696;2023-05-10T04:45:46;10.10;99.90
22968;DHT22;11650;48.106;-1.696;2023-05-10T04:48:11;10.10;99.90
22968;DHT22;11650;48.106;-1.696;2023-05-10T04:50:37;10.10;99.90
22968;DHT22;11650;48.106;-1.696;2023-05-10T04:53:04;10.10;99.90
22968;DHT22;11650;48.106;-1.696;2023-05-10T04:55:29;10.10;99.90
22968;DHT22;11650;48.106;-1.696;2023-05-10T04:57:55;10.10;99.90
22968;DHT22;11650;48.106;-1.696;2023-05-10T05:00:22;10.10;99.90
22968;DHT22;11650;48.106;-1.696;2023-05-10T05:02:48;10.10;99.90
22968;DHT22;11650;48.106;-1.696;2023-05-10T05:05:14;10.20;99.90
22968;DHT22;11650;48.106;-1.696;2023-05-10T05:07:40;10.20;99.90
22968;DHT22;11650;48.106;-1.696;2023-05-10T05:10:08;10.20;99.90
22968;DHT22;11650;48.106;-1.696;2023-05-10T05:12:35;10.20;99.90
22968;DHT22;11650;48.106;-1.696;2023-05-10T05:15:01;10.30;99.90
22968;DHT22;11650;48.106;-1.696;2023-05-10T05:17:27;10.40;99.90
22968;DHT22;11650;48.106;-1.696;2023-05-10T05:19:53;10.50;99.90
22968;DHT22;11650;48.106;-1.696;2023-05-10T05:22:19;10.60;99.90
22968;DHT22;11650;48.106;-1.696;2023-05-10T05:24:52;10.70;99.90
22968;DHT22;11650;48.106;-1.696;2023-05-10T05:27:17;10.80;99.90
22968;DHT22;11650;48.106;-1.696;2023-05-10T05:29:43;10.80;99.90
22968;DHT22;11650;48.106;-1.696;2023-05-10T05:32:09;10.80;99.90
22968;DHT22;11650;48.106;-1.696;2023-05-10T05:34:34;10.80;99.90
22968;DHT22;11650;48.106;-1.696;2023-05-10T05:37:00;10.80;99.90
22968;DHT22;11650;48.106;-1.696;2023-05-10T05:39:25;10.80;99.90
22968;DHT22;11650;48.106;-1.696;2023-05-10T05:41:51;10.90;99.90
22968;DHT22;11650;48.106;-1.696;2023-05-10T05:44:17;10.90;99.90
22968;DHT22;11650;48.106;-1.696;2023-05-10T05:46:42;11.00;99.90
22968;DHT22;11650;48.106;-1.696;2023-05-10T05:49:08;11.00;99.90
22968;DHT22;11650;48.106;-1.696;2023-05-10T05:51:33;11.10;99.90
22968;DHT22;11650;48.106;-1.696;2023-05-10T05:54:00;11.10;99.90
22968;DHT22;11650;48.106;-1.696;2023-05-10T05:56:27;11.10;99.90
22968;DHT22;11650;48.106;-1.696;2023-05-10T05:58:52;11.20;99.90
22968;DHT22;11650;48.106;-1.696;2023-05-10T06:01:18;11.40;99.90
22968;DHT22;11650;48.106;-1.696;2023-05-10T06:03:44;11.40;99.90
22968;DHT22;11650;48.106;-1.696;2023-05-10T06:06:09;11.40;99.90
22968;DHT22;11650;48.106;-1.696;2023-05-10T06:08:35;11.40;99.90
22968;DHT22;11650;48.106;-1.696;2023-05-10T06:11:01;11.40;99.90
22968;DHT22;11650;48.106;-1.696;2023-05-10T06:13:27;11.40;99.90
22968;DHT22;11650;48.106;-1.696;2023-05-10T06:15:58;11.40;99.90
22968;DHT22;11650;48.106;-1.696;2023-05-10T06:18:24;11.50;99.90
22968;DHT22;11650;48.106;-1.696;2023-05-10T06:20:50;11.50;99.90
22968;DHT22;11650;48.106;-1.696;2023-05-10T06:23:16;11.50;99.90
22968;DHT22;11650;48.106;-1.696;2023-05-10T06:25:41;11.50;99.90
22968;DHT22;11650;48.106;-1.696;2023-05-10T06:28:07;11.60;99.90
22968;DHT22;11650;48.106;-1.696;2023-05-10T06:30:33;11.60;99.90
22968;DHT22;11650;48.106;-1.696;2023-05-10T06:32:58;11.70;99.90
22968;DHT22;11650;48.106;-1.696;2023-05-10T06:35:24;11.80;99.90
22968;DHT22;11650;48.106;-1.696;2023-05-10T06:37:50;11.80;99.90
22968;DHT22;11650;48.106;-1.696;2023-05-10T06:40:16;11.80;99.90
22968;DHT22;11650;48.106;-1.696;2023-05-10T06:42:42;11.80;99.90
22968;DHT22;11650;48.106;-1.696;2023-05-10T06:45:09;11.90;99.90
22968;DHT22;11650;48.106;-1.696;2023-05-10T06:47:35;12.00;99.90
22968;DHT22;11650;48.106;-1.696;2023-05-10T06:50:01;12.10;99.90
22968;DHT22;11650;48.106;-1.696;2023-05-10T06:52:26;12.20;99.90
22968;DHT22;11650;48.106;-1.696;2023-05-10T06:54:52;12.20;99.90
22968;DHT22;11650;48.106;-1.696;2023-05-10T06:57:18;12.30;99.90
22968;DHT22;11650;48.106;-1.696;2023-05-10T06:59:43;12.50;99.90
22968;DHT22;11650;48.106;-1.696;2023-05-10T07:02:09;12.70;99.90
22968;DHT22;11650;48.106;-1.696;2023-05-10T07:04:34;12.70;99.90
22968;DHT22;11650;48.106;-1.696;2023-05-10T07:07:00;12.80;99.90
22968;DHT22;11650;48.106;-1.696;2023-05-10T07:09:26;12.90;99.90
22968;DHT22;11650;48.106;-1.696;2023-05-10T07:11:51;13.10;99.90
22968;DHT22;11650;48.106;-1.696;2023-05-10T07:14:17;13.10;99.90
22968;DHT22;11650;48.106;-1.696;2023-05-10T07:16:43;13.20;99.90
22968;DHT22;11650;48.106;-1.696;2023-05-10T07:19:09;13.20;99.90
22968;DHT22;11650;48.106;-1.696;2023-05-10T07:21:36;13.20;99.90
22968;DHT22;11650;48.106;-1.696;2023-05-10T07:24:01;13.20;99.90
22968;DHT22;11650;48.106;-1.696;2023-05-10T07:26:28;13.20;99.90
22968;DHT22;11650;48.106;-1.696;2023-05-10T07:28:54;13.20;99.90
22968;DHT22;11650;48.106;-1.696;2023-05-10T07:31:20;13.30;99.90
22968;DHT22;11650;48.106;-1.696;2023-05-10T07:33:45;13.40;99.90
22968;DHT22;11650;48.106;-1.696;2023-05-10T07:36:11;13.40;99.90
22968;DHT22;11650;48.106;-1.696;2023-05-10T07:38:37;13.30;99.90
22968;DHT22;11650;48.106;-1.696;2023-05-10T07:41:02;13.20;99.90
22968;DHT22;11650;48.106;-1.696;2023-05-10T07:43:28;13.20;99.90
22968;DHT22;11650;48.106;-1.696;2023-05-10T07:45:53;13.20;99.90
22968;DHT22;11650;48.106;-1.696;2023-05-10T07:48:19;13.30;99.90
22968;DHT22;11650;48.106;-1.696;2023-05-10T07:50:45;13.30;99.90
22968;DHT22;11650;48.106;-1.696;2023-05-10T07:53:11;13.40;99.90
22968;DHT22;11650;48.106;-1.696;2023-05-10T07:55:37;13.40;99.90
22968;DHT22;11650;48.106;-1.696;2023-05-10T07:58:03;13.30;99.90
22968;DHT22;11650;48.106;-1.696;2023-05-10T08:00:28;13.20;99.90
22968;DHT22;11650;48.106;-1.696;2023-05-10T08:02:54;13.20;99.90
22968;DHT22;11650;48.106;-1.696;2023-05-10T08:05:20;13.20;99.90
22968;DHT22;11650;48.106;-1.696;2023-05-10T08:07:45;13.20;99.90
22968;DHT22;11650;48.106;-1.696;2023-05-10T08:10:11;13.30;99.90
22968;DHT22;11650;48.106;-1.696;2023-05-10T08:12:37;13.30;99.90
22968;DHT22;11650;48.106;-1.696;2023-05-10T08:15:04;13.40;99.90
22968;DHT22;11650;48.106;-1.696;2023-05-10T08:17:29;13.40;99.90
22968;DHT22;11650;48.106;-1.696;2023-05-10T08:19:55;13.40;99.90
22968;DHT22;11650;48.106;-1.696;2023-05-10T08:22:21;13.70;99.90
22968;DHT22;11650;48.106;-1.696;2023-05-10T08:24:47;13.70;99.90
22968;DHT22;11650;48.106;-1.696;2023-05-10T08:27:13;13.60;99.90
22968;DHT22;11650;48.106;-1.696;2023-05-10T08:29:39;13.70;99.90
22968;DHT22;11650;48.106;-1.696;2023-05-10T08:32:05;13.70;99.90
22968;DHT22;11650;48.106;-1.696;2023-05-10T08:34:31;13.80;99.90
22968;DHT22;11650;48.106;-1.696;2023-05-10T08:36:57;13.80;99.90
22968;DHT22;11650;48.106;-1.696;2023-05-10T08:39:22;14.00;99.90
22968;DHT22;11650;48.106;-1.696;2023-05-10T08:41:51;14.30;99.90
22968;DHT22;11650;48.106;-1.696;2023-05-10T08:44:16;14.40;99.90
22968;DHT22;11650;48.106;-1.696;2023-05-10T08:46:46;14.60;99.90
22968;DHT22;11650;48.106;-1.696;2023-05-10T08:49:14;14.80;99.90
22968;DHT22;11650;48.106;-1.696;2023-05-10T08:51:40;15.00;99.90
22968;DHT22;11650;48.106;-1.696;2023-05-10T08:54:07;15.20;99.90
22968;DHT22;11650;48.106;-1.696;2023-05-10T08:56:33;15.40;99.90
22968;DHT22;11650;48.106;-1.696;2023-05-10T08:58:59;15.40;99.90
22968;DHT22;11650;48.106;-1.696;2023-05-10T09:01:25;14.90;99.90
22968;DHT22;11650;48.106;-1.696;2023-05-10T09:03:52;14.80;99.90
22968;DHT22;11650;48.106;-1.696;2023-05-10T09:06:18;14.80;99.90
22968;DHT22;11650;48.106;-1.696;2023-05-10T09:08:44;14.90;99.90
22968;DHT22;11650;48.106;-1.696;2023-05-10T09:11:11;15.20;99.90
22968;DHT22;11650;48.106;-1.696;2023-05-10T09:13:37;15.00;99.90
22968;DHT22;11650;48.106;-1.696;2023-05-10T09:16:04;14.90;99.90
22968;DHT22;11650;48.106;-1.696;2023-05-10T09:18:30;15.00;99.90
22968;DHT22;11650;48.106;-1.696;2023-05-10T09:20:56;14.80;99.90
22968;DHT22;11650;48.106;-1.696;2023-05-10T09:23:22;14.70;99.90
22968;DHT22;11650;48.106;-1.696;2023-05-10T09:26:02;14.60;99.90
22968;DHT22;11650;48.106;-1.696;2023-05-10T09:28:32;14.70;99.90
22968;DHT22;11650;48.106;-1.696;2023-05-10T09:30:58;14.60;99.90
22968;DHT22;11650;48.106;-1.696;2023-05-10T09:33:24;14.30;99.90
22968;DHT22;11650;48.106;-1.696;2023-05-10T09:35:51;14.10;99.90
22968;DHT22;11650;48.106;-1.696;2023-05-10T09:38:17;14.20;99.90
22968;DHT22;11650;48.106;-1.696;2023-05-10T09:40:51;14.20;99.90
22968;DHT22;11650;48.106;-1.696;2023-05-10T09:43:20;14.30;99.90
22968;DHT22;11650;48.106;-1.696;2023-05-10T09:45:48;14.50;99.90
22968;DHT22;11650;48.106;-1.696;2023-05-10T09:48:15;14.80;99.90
22968;DHT22;11650;48.106;-1.696;2023-05-10T09:50:41;15.10;99.90
22968;DHT22;11650;48.106;-1.696;2023-05-10T09:53:07;15.40;99.90
22968;DHT22;11650;48.106;-1.696;2023-05-10T09:55:39;15.40;99.90
22968;DHT22;11650;48.106;-1.696;2023-05-10T09:58:06;15.30;99.90
22968;DHT22;11650;48.106;-1.696;2023-05-10T10:00:40;15.10;99.90
22968;DHT22;11650;48.106;-1.696;2023-05-10T10:03:07;15.10;99.90
22968;DHT22;11650;48.106;-1.696;2023-05-10T10:05:40;15.30;99.90
22968;DHT22;11650;48.106;-1.696;2023-05-10T10:08:06;15.40;99.90
22968;DHT22;11650;48.106;-1.696;2023-05-10T10:10:33;15.40;99.90
22968;DHT22;11650;48.106;-1.696;2023-05-10T10:13:00;15.50;99.90
22968;DHT22;11650;48.106;-1.696;2023-05-10T10:15:26;15.40;99.90
22968;DHT22;11650;48.106;-1.696;2023-05-10T10:17:52;15.70;99.90
22968;DHT22;11650;48.106;-1.696;2023-05-10T10:20:19;16.10;99.90
22968;DHT22;11650;48.106;-1.696;2023-05-10T10:22:45;16.30;99.90
22968;DHT22;11650;48.106;-1.696;2023-05-10T10:25:14;16.20;99.90
22968;DHT22;11650;48.106;-1.696;2023-05-10T10:35:46;15.40;99.90
22968;DHT22;11650;48.106;-1.696;2023-05-10T10:38:15;15.20;99.90
22968;DHT22;11650;48.106;-1.696;2023-05-10T10:40:41;15.20;99.90
22968;DHT22;11650;48.106;-1.696;2023-05-10T10:43:26;15.10;99.90
22968;DHT22;11650;48.106;-1.696;2023-05-10T10:46:17;15.50;99.90
22968;DHT22;11650;48.106;-1.696;2023-05-10T10:48:51;15.50;99.90
22968;DHT22;11650;48.106;-1.696;2023-05-10T10:51:37;15.90;99.90
22968;DHT22;11650;48.106;-1.696;2023-05-10T10:54:12;16.00;99.90
22968;DHT22;11650;48.106;-1.696;2023-05-10T10:56:38;16.30;99.90
22968;DHT22;11650;48.106;-1.696;2023-05-10T10:59:04;16.40;99.90
22968;DHT22;11650;48.106;-1.696;2023-05-10T11:01:33;16.60;99.90
22968;DHT22;11650;48.106;-1.696;2023-05-10T11:06:31;17.00;99.90
22968;DHT22;11650;48.106;-1.696;2023-05-10T11:08:57;17.20;99.90
22968;DHT22;11650;48.106;-1.696;2023-05-10T11:11:23;17.20;99.90
22968;DHT22;11650;48.106;-1.696;2023-05-10T11:13:49;16.90;99.90
22968;DHT22;11650;48.106;-1.696;2023-05-10T11:16:19;16.80;99.90
22968;DHT22;11650;48.106;-1.696;2023-05-10T11:19:14;16.40;99.90
22968;DHT22;11650;48.106;-1.696;2023-05-10T11:24:31;15.80;99.90
22968;DHT22;11650;48.106;-1.696;2023-05-10T11:26:57;15.30;99.90
22968;DHT22;11650;48.106;-1.696;2023-05-10T11:29:22;15.10;99.90
22968;DHT22;11650;48.106;-1.696;2023-05-10T11:31:49;14.80;99.90
22968;DHT22;11650;48.106;-1.696;2023-05-10T11:34:26;14.40;99.90
22968;DHT22;11650;48.106;-1.696;2023-05-10T11:36:54;14.20;99.90
22968;DHT22;11650;48.106;-1.696;2023-05-10T11:39:20;14.10;99.90
22968;DHT22;11650;48.106;-1.696;2023-05-10T11:41:48;14.30;99.90
22968;DHT22;11650;48.106;-1.696;2023-05-10T11:44:14;14.50;99.90
22968;DHT22;11650;48.106;-1.696;2023-05-10T11:46:40;14.90;99.90
22968;DHT22;11650;48.106;-1.696;2023-05-10T11:49:07;15.60;99.90
22968;DHT22;11650;48.106;-1.696;2023-05-10T11:51:36;15.90;99.90
22968;DHT22;11650;48.106;-1.696;2023-05-10T11:54:06;16.60;99.90
22968;DHT22;11650;48.106;-1.696;2023-05-10T11:56:33;17.30;99.90
22968;DHT22;11650;48.106;-1.696;2023-05-10T11:58:59;16.90;99.90
22968;DHT22;11650;48.106;-1.696;2023-05-10T12:01:28;16.50;99.90
22968;DHT22;11650;48.106;-1.696;2023-05-10T12:03:55;16.30;99.90
22968;DHT22;11650;48.106;-1.696;2023-05-10T12:06:27;16.10;99.90
22968;DHT22;11650;48.106;-1.696;2023-05-10T12:08:53;15.40;99.90
22968;DHT22;11650;48.106;-1.696;2023-05-10T12:11:19;14.90;99.90
22968;DHT22;11650;48.106;-1.696;2023-05-10T12:13:47;15.00;99.90
22968;DHT22;11650;48.106;-1.696;2023-05-10T12:16:18;15.10;99.90
22968;DHT22;11650;48.106;-1.696;2023-05-10T12:18:44;15.00;99.90
22968;DHT22;11650;48.106;-1.696;2023-05-10T12:21:11;15.00;99.90
22968;DHT22;11650;48.106;-1.696;2023-05-10T12:23:38;14.80;99.90
22968;DHT22;11650;48.106;-1.696;2023-05-10T12:26:05;14.80;99.90
22968;DHT22;11650;48.106;-1.696;2023-05-10T12:28:32;14.60;99.90
22968;DHT22;11650;48.106;-1.696;2023-05-10T12:30:59;14.40;99.90
22968;DHT22;11650;48.106;-1.696;2023-05-10T12:33:25;14.30;99.90
22968;DHT22;11650;48.106;-1.696;2023-05-10T12:35:53;14.30;99.90
22968;DHT22;11650;48.106;-1.696;2023-05-10T12:38:36;14.40;99.90
22968;DHT22;11650;48.106;-1.696;2023-05-10T12:41:05;14.50;99.90
22968;DHT22;11650;48.106;-1.696;2023-05-10T12:43:31;14.60;99.90
22968;DHT22;11650;48.106;-1.696;2023-05-10T12:45:57;14.70;99.90
22968;DHT22;11650;48.106;-1.696;2023-05-10T12:48:23;15.00;99.90
22968;DHT22;11650;48.106;-1.696;2023-05-10T12:50:49;15.30;99.90
22968;DHT22;11650;48.106;-1.696;2023-05-10T12:53:15;15.70;99.90
22968;DHT22;11650;48.106;-1.696;2023-05-10T12:55:42;16.30;99.90
22968;DHT22;11650;48.106;-1.696;2023-05-10T12:58:07;16.40;99.90
22968;DHT22;11650;48.106;-1.696;2023-05-10T13:00:33;16.80;99.90
22968;DHT22;11650;48.106;-1.696;2023-05-10T13:02:59;17.10;99.90
22968;DHT22;11650;48.106;-1.696;2023-05-10T13:05:25;17.40;99.90
22968;DHT22;11650;48.106;-1.696;2023-05-10T13:07:51;17.10;99.90
22968;DHT22;11650;48.106;-1.696;2023-05-10T13:10:16;16.80;99.90
22968;DHT22;11650;48.106;-1.696;2023-05-10T13:12:42;16.70;99.90
22968;DHT22;11650;48.106;-1.696;2023-05-10T13:15:08;16.60;99.90
22968;DHT22;11650;48.106;-1.696;2023-05-10T13:17:34;16.50;99.90
22968;DHT22;11650;48.106;-1.696;2023-05-10T13:19:59;16.50;99.90
22968;DHT22;11650;48.106;-1.696;2023-05-10T13:22:25;16.50;99.90
22968;DHT22;11650;48.106;-1.696;2023-05-10T13:24:51;16.30;99.90
22968;DHT22;11650;48.106;-1.696;2023-05-10T13:27:16;16.40;99.90
22968;DHT22;11650;48.106;-1.696;2023-05-10T13:29:42;16.40;99.90
22968;DHT22;11650;48.106;-1.696;2023-05-10T13:32:07;16.60;99.90
22968;DHT22;11650;48.106;-1.696;2023-05-10T13:34:33;16.90;99.90
22968;DHT22;11650;48.106;-1.696;2023-05-10T13:37:01;17.30;99.90
22968;DHT22;11650;48.106;-1.696;2023-05-10T13:39:26;17.30;99.90
22968;DHT22;11650;48.106;-1.696;2023-05-10T13:41:52;16.70;99.90
22968;DHT22;11650;48.106;-1.696;2023-05-10T13:44:19;16.20;99.90
22968;DHT22;11650;48.106;-1.696;2023-05-10T13:46:45;15.90;99.90
22968;DHT22;11650;48.106;-1.696;2023-05-10T13:49:11;15.40;99.90
22968;DHT22;11650;48.106;-1.696;2023-05-10T13:51:37;14.80;99.90
22968;DHT22;11650;48.106;-1.696;2023-05-10T13:54:03;14.10;99.90
22968;DHT22;11650;48.106;-1.696;2023-05-10T13:56:29;13.50;99.90
22968;DHT22;11650;48.106;-1.696;2023-05-10T13:58:56;13.40;99.90
22968;DHT22;11650;48.106;-1.696;2023-05-10T14:01:22;13.60;99.90
22968;DHT22;11650;48.106;-1.696;2023-05-10T14:03:48;13.90;99.90
22968;DHT22;11650;48.106;-1.696;2023-05-10T14:06:14;14.40;99.90
22968;DHT22;11650;48.106;-1.696;2023-05-10T14:08:40;15.10;99.90
22968;DHT22;11650;48.106;-1.696;2023-05-10T14:11:05;15.70;99.90
22968;DHT22;11650;48.106;-1.696;2023-05-10T14:13:31;16.10;99.90
22968;DHT22;11650;48.106;-1.696;2023-05-10T14:15:58;16.60;99.90
22968;DHT22;11650;48.106;-1.696;2023-05-10T14:18:26;16.70;99.90
22968;DHT22;11650;48.106;-1.696;2023-05-10T14:20:52;16.80;99.90
22968;DHT22;11650;48.106;-1.696;2023-05-10T14:23:17;16.90;99.90
22968;DHT22;11650;48.106;-1.696;2023-05-10T14:25:45;17.00;99.90
22968;DHT22;11650;48.106;-1.696;2023-05-10T14:28:10;16.80;99.90
22968;DHT22;11650;48.106;-1.696;2023-05-10T14:30:37;16.50;99.90
22968;DHT22;11650;48.106;-1.696;2023-05-10T14:33:03;16.40;99.90
22968;DHT22;11650;48.106;-1.696;2023-05-10T14:35:29;16.10;99.90
22968;DHT22;11650;48.106;-1.696;2023-05-10T14:37:56;16.00;99.90
22968;DHT22;11650;48.106;-1.696;2023-05-10T14:40:22;15.90;99.90
22968;DHT22;11650;48.106;-1.696;2023-05-10T14:42:48;15.80;99.90
22968;DHT22;11650;48.106;-1.696;2023-05-10T14:45:13;15.90;99.90
22968;DHT22;11650;48.106;-1.696;2023-05-10T14:47:39;15.90;99.90
22968;DHT22;11650;48.106;-1.696;2023-05-10T14:50:05;15.70;99.90
22968;DHT22;11650;48.106;-1.696;2023-05-10T14:52:31;15.60;99.90
22968;DHT22;11650;48.106;-1.696;2023-05-10T14:54:56;15.50;99.90
22968;DHT22;11650;48.106;-1.696;2023-05-10T14:57:24;15.60;99.90
22968;DHT22;11650;48.106;-1.696;2023-05-10T14:59:50;16.00;99.90
22968;DHT22;11650;48.106;-1.696;2023-05-10T15:02:15;16.50;99.90
22968;DHT22;11650;48.106;-1.696;2023-05-10T15:04:41;17.40;99.90
22968;DHT22;11650;48.106;-1.696;2023-05-10T15:07:07;17.90;99.90
22968;DHT22;11650;48.106;-1.696;2023-05-10T15:09:32;17.70;99.90
22968;DHT22;11650;48.106;-1.696;2023-05-10T15:11:58;17.50;99.90
22968;DHT22;11650;48.106;-1.696;2023-05-10T15:14:24;17.60;99.90
22968;DHT22;11650;48.106;-1.696;2023-05-10T15:16:49;17.70;99.90
22968;DHT22;11650;48.106;-1.696;2023-05-10T15:19:15;17.60;99.90
22968;DHT22;11650;48.106;-1.696;2023-05-10T15:21:41;17.40;99.90
22968;DHT22;11650;48.106;-1.696;2023-05-10T15:24:09;17.10;99.90
22968;DHT22;11650;48.106;-1.696;2023-05-10T15:26:35;16.60;99.90
22968;DHT22;11650;48.106;-1.696;2023-05-10T15:29:00;16.30;99.90
22968;DHT22;11650;48.106;-1.696;2023-05-10T15:31:26;16.10;99.90
22968;DHT22;11650;48.106;-1.696;2023-05-10T15:33:57;16.20;99.90
22968;DHT22;11650;48.106;-1.696;2023-05-10T15:36:24;16.20;99.90
22968;DHT22;11650;48.106;-1.696;2023-05-10T15:38:50;16.00;99.90
22968;DHT22;11650;48.106;-1.696;2023-05-10T15:41:15;15.70;99.90
22968;DHT22;11650;48.106;-1.696;2023-05-10T15:43:41;15.50;99.90
22968;DHT22;11650;48.106;-1.696;2023-05-10T15:46:07;15.40;99.90